Home > Products > Valid Products > MTR

000
SAUS46 KMTR 250614
MTRMHS
SPECI KMHS 250613Z AUTO VRB04KT 10SM BKN015 BKN025 OVC043 05/02
A2985 RMK AO2 T00500022





000
SAUS46 KMTR 250555
MTRMHS
METAR KMHS 250556Z AUTO VRB04KT 10SM FEW025 OVC043 05/02 A2986 RMK
AO2 SLP129 60001 T00500022 10100 20044 50002





000
SAUS46 KMTR 250455
MTRMHS
METAR KMHS 250456Z AUTO VRB04KT 10SM BKN037 OVC047 05/02 A2986 RMK
AO2 RAE41 SLP133 P0001 T00500022





000
SAUS46 KMTR 250355
MTRMHS
METAR KMHS 250356Z AUTO VRB04KT 9SM -RA SCT029 OVC033 06/02 A2987
RMK AO2 RAB47 SLP135 P0000 T00560017





000
SAUS46 KMTR 250256
MTRMHS
METAR KMHS 250256Z AUTO VRB03KT 10SM OVC065 07/03 A2985 RMK AO2
RAB26E37 SLP126 P0000 60000 T00720028 58002





000
SAUS46 KMTR 250155
MTRMHS
METAR KMHS 250156Z AUTO VRB03KT 10SM OVC060 08/02 A2986 RMK AO2
RAE30 SLP129 P0000 T00830022





000
SAUS46 KMTR 250155
MTRMHS
METAR KMHS 250156Z AUTO VRB03KT 10SM OVC060 08/02 A2986 RMK AO2
RAE30 SLP129 P0000 T00830022





000
SAUS46 KMTR 250055
MTRMHS
METAR KMHS 250056Z AUTO 00000KT 10SM -RA BKN050 OVC060 09/01 A2986
RMK AO2 RAB56 SLP130 P0000 T00890011





000
SAUS46 KMTR 250055
MTRMHS
METAR KMHS 250056Z AUTO 00000KT 10SM -RA BKN050 OVC060 09/01 A2986
RMK AO2 RAB56 SLP130 P0000 T00890011





000
SAUS46 KMTR 242355
MTRMHS
METAR KMHS 242356Z AUTO 06004KT 10SM OVC055 10/01 A2985 RMK AO2
RAB33E51 SLP125 P0000 60000 T01000006 10111 20072 56005





000
SAUS46 KMTR 242355
MTRMHS
METAR KMHS 242356Z AUTO 06004KT 10SM OVC055 10/01 A2985 RMK AO2
RAB33E51 SLP125 P0000 60000 T01000006 10111 20072 56005





000
SAUS46 KMTR 242255
MTRMHS
METAR KMHS 242256Z AUTO 00000KT 10SM OVC060 11/M01 A2986 RMK AO2
SLP126 T01061006





000
SAUS46 KMTR 242155
MTRMHS
METAR KMHS 242156Z AUTO 30005KT 10SM OVC065 11/M01 A2986 RMK AO2
SLP125 T01111006





000
SAUS46 KMTR 242155
MTRMHS
METAR KMHS 242156Z AUTO 30005KT 10SM OVC065 11/M01 A2986 RMK AO2
SLP125 T01111006





000
SAUS46 KMTR 242055
MTRMHS
METAR KMHS 242056Z AUTO VRB05KT 10SM OVC070 11/M01 A2987 RMK AO2
SLP128 T01061006 58009





000
SAUS46 KMTR 241955
MTRMHS
METAR KMHS 241956Z AUTO VRB05KT 10SM SCT043 OVC075 11/00 A2988 RMK
AO2 SLP132 T01060000





000
SAUS46 KMTR 241855
MTRMHS
METAR KMHS 241856Z AUTO 31008KT 10SM OVC080 08/01 A2990 RMK AO2
SLP139 T00830006





000
SAUS46 KMTR 241755
MTRMHS
METAR KMHS 241756Z AUTO VRB05KT 10SM OVC090 07/01 A2990 RMK AO2
SLP141 T00720006 10072 20033 51010





000
SAUS46 KMTR 241755
MTRMHS
METAR KMHS 241756Z AUTO VRB05KT 10SM OVC090 07/01 A2990 RMK AO2
SLP141 T00720006 10072 20033 51010





000
SAUS46 KMTR 241655
MTRMHS
METAR KMHS 241656Z AUTO VRB04KT 10SM OVC090 06/01 A2990 RMK AO2
SLP140 T00610006





000
SAUS46 KMTR 241555
MTRMHS
METAR KMHS 241556Z AUTO VRB05KT 10SM OVC100 06/00 A2988 RMK AO2
SLP133 T00560000





000
SAUS46 KMTR 241455
MTRMHS
METAR KMHS 241456Z AUTO VRB03KT 10SM FEW029 05/01 A2987 RMK AO2
SLP129 T00500011 53010





000
SAUS46 KMTR 241455
MTRMHS
METAR KMHS 241456Z AUTO VRB03KT 10SM FEW029 05/01 A2987 RMK AO2
SLP129 T00500011 53010





000
SAUS46 KMTR 241355
MTRMHS
METAR KMHS 241356Z AUTO 10SM CLR 04/01 A2985 RMK AO2 SLP125
T00390011





000
SAUS46 KMTR 241355
MTRMHS
METAR KMHS 241356Z AUTO 10SM CLR 04/01 A2985 RMK AO2 SLP125
T00390011





000
SAUS46 KMTR 241255
MTRMHS
METAR KMHS 241256Z AUTO VRB03KT 10SM CLR 03/01 A2983 RMK AO2 SLP116
T00330006





000
SAUS46 KMTR 241255
MTRMHS
METAR KMHS 241256Z AUTO VRB03KT 10SM CLR 03/01 A2983 RMK AO2 SLP116
T00330006





000
SAUS46 KMTR 241155
MTRMHS
METAR KMHS 241156Z AUTO VRB05KT 10SM CLR 04/01 A2983 RMK AO2 SLP111
70003 T00390006 10089 20039 50000





000
SAUS46 KMTR 241155
MTRMHS
METAR KMHS 241156Z AUTO VRB05KT 10SM CLR 04/01 A2983 RMK AO2 SLP111
70003 T00390006 10089 20039 50000





000
SAUS46 KMTR 241057
MTRMHS
METAR KMHS 241056Z AUTO 31009G17KT 10SM CLR 04/01 A2984 RMK AO2
SLP112 T00440006





000
SAUS46 KMTR 240855
MTRMHS
METAR KMHS 240856Z AUTO VRB04KT 10SM CLR 07/02 A2983 RMK AO2 SLP106
T00670017 53000





000
SAUS46 KMTR 240855
MTRMHS
METAR KMHS 240856Z AUTO VRB04KT 10SM CLR 07/02 A2983 RMK AO2 SLP106
T00670017 53000





000
SAUS46 KMTR 240755
MTRMHS
METAR KMHS 240756Z AUTO VRB05KT 10SM CLR 07/03 A2983 RMK AO2 SLP103
T00670033 402110033





000
SAUS46 KMTR 240755
MTRMHS
METAR KMHS 240756Z AUTO VRB05KT 10SM CLR 07/03 A2983 RMK AO2 SLP103
T00670033 402110033





000
SAUS46 KMTR 240737
MTRMHS
SPECI KMHS 240736Z AUTO 10SM SCT026 BKN034 07/04 A2983 RMK AO2
T00720039





000
SAUS46 KMTR 240737
MTRMHS
SPECI KMHS 240736Z AUTO 10SM SCT026 BKN034 07/04 A2983 RMK AO2
T00720039





000
SAUS46 KMTR 240656
MTRMHS
METAR KMHS 240656Z AUTO 34008KT 300V360 10SM FEW023 BKN029 OVC038
08/04 A2983 RMK AO2 SLP105 T00830044





000
SAUS46 KMTR 240555
MTRMHS
METAR KMHS 240556Z AUTO VRB03KT 10SM SCT025 BKN033 OVC043 08/05
A2983 RMK AO2 RAB03E43 SLP107 P0000 60003 T00830050 10172 20078
53000





000
SAUS46 KMTR 240555
MTRMHS
METAR KMHS 240556Z AUTO VRB03KT 10SM SCT025 BKN033 OVC043 08/05
A2983 RMK AO2 RAB03E43 SLP107 P0000 60003 T00830050 10172 20078
53000





000
SAUS46 KMTR 240455
MTRMHS
METAR KMHS 240456Z AUTO 33007G18KT 290V360 10SM SCT033 BKN049 OVC060
09/06 A2983 RMK AO2 RAB43E55 SLP106 P0000 T00890056





000
SAUS46 KMTR 240455
MTRMHS
METAR KMHS 240456Z AUTO 33007G18KT 290V360 10SM SCT033 BKN049 OVC060
09/06 A2983 RMK AO2 RAB43E55 SLP106 P0000 T00890056





000
SAUS46 KMTR 240355
MTRMHS
METAR KMHS 240356Z AUTO VRB04KT 10SM SCT110 09/07 A2982 RMK AO2
SLP106 T00940067





000
SAUS46 KMTR 240355
MTRMHS
METAR KMHS 240356Z AUTO VRB04KT 10SM SCT110 09/07 A2982 RMK AO2
SLP106 T00940067





000
SAUS46 KMTR 240256
MTRMHS
METAR KMHS 240256Z AUTO 31005KT 10SM BKN035 BKN046 OVC100 10/07
A2983 RMK AO2 SLP115 60003 T01000072 50005





000
SAUS46 KMTR 240055
MTRMHS
METAR KMHS 240056Z AUTO 31012G20KT 10SM -RA SCT070 BKN085 OVC110
13/06 A2984 RMK AO2 RAB53 SLP117 P0000 T01280056





000
SAUS46 KMTR 232355
MTRMHS
METAR KMHS 232356Z AUTO 33008G18KT 290V010 10SM BKN090 BKN120 17/02
A2982 RMK AO2 SLP105 T01720022 10211 20156 56013





000
SAUS46 KMTR 232355
MTRMHS
METAR KMHS 232356Z AUTO 33008G18KT 290V010 10SM BKN090 BKN120 17/02
A2982 RMK AO2 SLP105 T01720022 10211 20156 56013





000
SAUS46 KMTR 232256
MTRMHS
METAR KMHS 232256Z AUTO VRB06KT 10SM BKN090 OVC110 18/02 A2982 RMK
AO2 SLP103 T01780017





000
SAUS46 KMTR 232256
MTRMHS
METAR KMHS 232256Z AUTO VRB06KT 10SM BKN090 OVC110 18/02 A2982 RMK
AO2 SLP103 T01780017





000
SAUS46 KMTR 232156
MTRMHS
METAR KMHS 232156Z AUTO 10SM SCT085 19/02 A2984 RMK AO2 SLP107
T01940017





000
SAUS46 KMTR 232056
MTRMHS
METAR KMHS 232056Z AUTO 01008G18KT 10SM CLR 19/01 A2986 RMK AO2
SLP113 T01890006 58015





000
SAUS46 KMTR 232056
MTRMHS
METAR KMHS 232056Z AUTO 01008G18KT 10SM CLR 19/01 A2986 RMK AO2
SLP113 T01890006 58015





000
SAUS46 KMTR 231956
MTRMHS
METAR KMHS 231956Z AUTO 32007G20KT 260V020 10SM CLR 18/M01 A2988 RMK
AO2 SLP122 T01831011





000
SAUS46 KMTR 231956
MTRMHS
METAR KMHS 231956Z AUTO 32007G20KT 260V020 10SM CLR 18/M01 A2988 RMK
AO2 SLP122 T01831011





000
SAUS46 KMTR 231855
MTRMHS
METAR KMHS 231856Z AUTO 10SM CLR 17/M02 A2991 RMK AO2 SLP132
T01721017





000
SAUS46 KMTR 231855
MTRMHS
METAR KMHS 231856Z AUTO 10SM CLR 17/M02 A2991 RMK AO2 SLP132
T01721017





000
SAUS46 KMTR 231755
MTRMHS
METAR KMHS 231756Z AUTO 30008KT 270V340 10SM CLR 16/M01 A2991 RMK
AO2 SLP130 T01611006 10167 20033 58016





000
SAUS46 KMTR 231656
MTRMHS
METAR KMHS 231656Z AUTO VRB05KT 10SM CLR 16/01 A2993 RMK AO2 SLP136
T01560011





000
SAUS46 KMTR 231656
MTRMHS
METAR KMHS 231656Z AUTO VRB05KT 10SM CLR 16/01 A2993 RMK AO2 SLP136
T01560011





000
SAUS46 KMTR 231555
MTRMHS
METAR KMHS 231556Z AUTO 00000KT 10SM CLR 11/01 A2995 RMK AO2 SLP149
T01060011





000
SAUS46 KMTR 231455
MTRMHS
METAR KMHS 231456Z AUTO VRB04KT 10SM CLR 08/00 A2996 RMK AO2 SLP154
T00780000 53003





000
SAUS46 KMTR 231355
MTRMHS
METAR KMHS 231356Z AUTO 00000KT 10SM CLR 05/M01 A2995 RMK AO2 SLP149
T00501006





000
SAUS46 KMTR 231255
MTRMHS
METAR KMHS 231256Z AUTO 32003KT 10SM CLR 04/M01 A2994 RMK AO2 SLP146
T00391006





000
SAUS46 KMTR 231255
MTRMHS
METAR KMHS 231256Z AUTO 32003KT 10SM CLR 04/M01 A2994 RMK AO2 SLP146
T00391006





000
SAUS46 KMTR 231156
MTRMHS
METAR KMHS 231156Z AUTO 00000KT 10SM CLR 04/M01 A2995 RMK AO2 SLP150
T00391006 10100 20033 56003





000
SAUS46 KMTR 231156
MTRMHS
METAR KMHS 231156Z AUTO 00000KT 10SM CLR 04/M01 A2995 RMK AO2 SLP150
T00391006 10100 20033 56003





000
SAUS46 KMTR 230955
MTRMHS
METAR KMHS 230956Z AUTO VRB04KT 10SM CLR 06/M01 A2996 RMK AO2 SLP150
T00611006





000
SAUS46 KMTR 230855
MTRMHS
METAR KMHS 230856Z AUTO VRB03KT 10SM CLR 08/M01 A2996 RMK AO2 SLP149
T00781006 50004





000
SAUS46 KMTR 230855
MTRMHS
METAR KMHS 230856Z AUTO VRB03KT 10SM CLR 08/M01 A2996 RMK AO2 SLP149
T00781006 50004





000
SAUS46 KMTR 230755
MTRMHS
METAR KMHS 230756Z AUTO VRB04KT 10SM CLR 08/00 A2996 RMK AO2 SLP151
T00780000 401890067





000
SAUS46 KMTR 230655
MTRMHS
METAR KMHS 230656Z AUTO VRB03KT 10SM CLR 08/00 A2997 RMK AO2 SLP156
T00830000





000
SAUS46 KMTR 230655
MTRMHS
METAR KMHS 230656Z AUTO VRB03KT 10SM CLR 08/00 A2997 RMK AO2 SLP156
T00830000





000
SAUS46 KMTR 230555
MTRMHS
METAR KMHS 230556Z AUTO VRB06KT 10SM CLR 10/00 A2995 RMK AO2 SLP146
T01000000 10183 20094 53012





000
SAUS46 KMTR 230555
MTRMHS
METAR KMHS 230556Z AUTO VRB06KT 10SM CLR 10/00 A2995 RMK AO2 SLP146
T01000000 10183 20094 53012





000
SAUS46 KMTR 230455
MTRMHS
METAR KMHS 230456Z AUTO 34007KT 10SM CLR 11/M01 A2993 RMK AO2 SLP142
T01111006





000
SAUS46 KMTR 230355
MTRMHS
METAR KMHS 230356Z AUTO 35008KT 10SM CLR 12/M01 A2992 RMK AO2 SLP139
T01171011





000
SAUS46 KMTR 230355
MTRMHS
METAR KMHS 230356Z AUTO 35008KT 10SM CLR 12/M01 A2992 RMK AO2 SLP139
T01171011





000
SAUS46 KMTR 230255
MTRMHS
METAR KMHS 230256Z AUTO 34007KT 300V010 10SM CLR 13/M02 A2991 RMK
AO2 SLP136 T01331017 53004





000
SAUS46 KMTR 230255
MTRMHS
METAR KMHS 230256Z AUTO 34007KT 300V010 10SM CLR 13/M02 A2991 RMK
AO2 SLP136 T01331017 53004





000
SAUS46 KMTR 230155
MTRMHS
METAR KMHS 230156Z AUTO 33007KT 10SM CLR 16/M03 A2988 RMK AO2 SLP125
T01611033





000
SAUS46 KMTR 230155
MTRMHS
METAR KMHS 230156Z AUTO 33007KT 10SM CLR 16/M03 A2988 RMK AO2 SLP125
T01611033





000
SAUS46 KMTR 230055
MTRMHS
METAR KMHS 230056Z AUTO 10SM CLR 18/M04 A2989 RMK AO2 SLP125
T01781039





000
SAUS46 KMTR 230055
MTRMHS
METAR KMHS 230056Z AUTO 10SM CLR 18/M04 A2989 RMK AO2 SLP125
T01781039





000
SAUS46 KMTR 222255
MTRMHS
METAR KMHS 222256Z AUTO 32009G19KT 270V020 10SM CLR 18/03 A2989 RMK
AO2 SLP125 T01830033





000
SAUS46 KMTR 222155
MTRMHS
METAR KMHS 222156Z AUTO 33008G20KT 260V030 10SM CLR 18/04 A2991 RMK
AO2 SLP128 T01830044





000
SAUS46 KMTR 222055
MTRMHS
METAR KMHS 222056Z AUTO VRB06KT 10SM CLR 18/05 A2993 RMK AO2 SLP136
T01780050 58017





000
SAUS46 KMTR 221955
MTRMHS
METAR KMHS 221956Z AUTO VRB05KT 10SM CLR 16/05 A2995 RMK AO2 SLP144
T01610050





000
SAUS46 KMTR 221856
MTRMHS
METAR KMHS 221856Z AUTO 35008G16KT 310V020 10SM CLR 14/04 A2998 RMK
AO2 SLP157 T01390039





000
SAUS46 KMTR 221856
MTRMHS
METAR KMHS 221856Z AUTO 35008G16KT 310V020 10SM CLR 14/04 A2998 RMK
AO2 SLP157 T01390039





000
SAUS46 KMTR 221756
MTRMHS
METAR KMHS 221756Z AUTO 10SM CLR 14/04 A2998 RMK AO2 SLP159
T01390039 10139 20078 58003





000
SAUS46 KMTR 221756
MTRMHS
METAR KMHS 221756Z AUTO 10SM CLR 14/04 A2998 RMK AO2 SLP159
T01390039 10139 20078 58003





000
SAUS46 KMTR 221655
MTRMHS
METAR KMHS 221656Z AUTO VRB05KT 10SM CLR 11/03 A2999 RMK AO2 SLP163
T01110033





000
SAUS46 KMTR 221628
MTRMHS
SPECI KMHS 221629Z AUTO VRB06G15KT 10SM SCT023 11/03 A2999 RMK AO2
T01060033





000
SAUS46 KMTR 221628
MTRMHS
SPECI KMHS 221629Z AUTO VRB06G15KT 10SM SCT023 11/03 A2999 RMK AO2
T01060033





000
SAUS46 KMTR 221555
MTRMHS
METAR KMHS 221556Z AUTO 10SM OVC023 10/04 A2999 RMK AO2 SLP165
T01000039





000
SAUS46 KMTR 221455
MTRMHS
METAR KMHS 221456Z AUTO VRB04KT 10SM OVC023 08/04 A2999 RMK AO2
SLP166 T00780039 51011





000
SAUS46 KMTR 221355
MTRMHS
METAR KMHS 221356Z AUTO VRB05G15KT 10SM FEW017 OVC025 08/04 A2999
RMK AO2 SLP158 T00780039





000
SAUS46 KMTR 221355
MTRMHS
METAR KMHS 221356Z AUTO VRB05G15KT 10SM FEW017 OVC025 08/04 A2999
RMK AO2 SLP158 T00780039





000
SAUS46 KMTR 221255
MTRMHS
METAR KMHS 221256Z AUTO 33008G15KT 290V360 10SM BKN017 OVC021 08/04
A2997 RMK AO2 SLP148 T00780044





000
SAUS46 KMTR 221255
MTRMHS
METAR KMHS 221256Z AUTO 33008G15KT 290V360 10SM BKN017 OVC021 08/04
A2997 RMK AO2 SLP148 T00780044





000
SAUS46 KMTR 221240
MTRMHS
SPECI KMHS 221239Z AUTO VRB06KT 10SM OVC015 08/05 A2996 RMK AO2
T00830050





000
SAUS46 KMTR 221240
MTRMHS
SPECI KMHS 221239Z AUTO VRB06KT 10SM OVC015 08/05 A2996 RMK AO2
T00830050





000
SAUS46 KMTR 221212
MTRMHS
SPECI KMHS 221213Z AUTO VRB03KT 10SM OVC014 08/05 A2996 RMK AO2
T00830050





000
SAUS46 KMTR 221212
MTRMHS
SPECI KMHS 221213Z AUTO VRB03KT 10SM OVC014 08/05 A2996 RMK AO2
T00830050





000
SAUS46 KMTR 221157
MTRMHS
METAR KMHS 221156Z AUTO VRB04KT 10SM OVC015 08/05 A2996 RMK AO2
SLP146 70007 T00830050 10111 20083 53008





000
SAUS46 KMTR 221157
MTRMHS
METAR KMHS 221156Z AUTO VRB04KT 10SM OVC015 08/05 A2996 RMK AO2
SLP146 70007 T00830050 10111 20083 53008





000
SAUS46 KMTR 221055
MTRMHS
METAR KMHS 221056Z AUTO VRB04KT 10SM FEW021 BKN027 08/05 A2995 RMK
AO2 SLP141 T00830050





000
SAUS46 KMTR 221055
MTRMHS
METAR KMHS 221056Z AUTO VRB04KT 10SM FEW021 BKN027 08/05 A2995 RMK
AO2 SLP141 T00830050





000
SAUS46 KMTR 220955
MTRMHS
METAR KMHS 220956Z AUTO VRB05KT 10SM CLR 09/05 A2994 RMK AO2 SLP134
T00890050





000
SAUS46 KMTR 220855
MTRMHS
METAR KMHS 220856Z AUTO VRB06KT 10SM FEW023 09/05 A2993 RMK AO2
SLP131 T00940050 50000





000
SAUS46 KMTR 220855
MTRMHS
METAR KMHS 220856Z AUTO VRB06KT 10SM FEW023 09/05 A2993 RMK AO2
SLP131 T00940050 50000





000
SAUS46 KMTR 220755
MTRMHS
METAR KMHS 220756Z AUTO 34007G17KT 10SM FEW026 10/05 A2995 RMK AO2
SLP135 T01000050 402440033





000
SAUS46 KMTR 220755
MTRMHS
METAR KMHS 220756Z AUTO 34007G17KT 10SM FEW026 10/05 A2995 RMK AO2
SLP135 T01000050 402440033





000
SAUS46 KMTR 220655
MTRMHS
METAR KMHS 220656Z AUTO VRB06KT 10SM CLR 10/05 A2994 RMK AO2 SLP133
T01000050





000
SAUS46 KMTR 220655
MTRMHS
METAR KMHS 220656Z AUTO VRB06KT 10SM CLR 10/05 A2994 RMK AO2 SLP133
T01000050





    US Dept of Commerce
    National Oceanic and Atmospheric Administration
    National Weather Service
    1325 East West Highway
    Silver Spring, MD 20910
    Page Author: NWS Internet Services Team
Disclaimer
Information Quality
Credits
Glossary
Privacy Policy
Freedom of Information Act (FOIA)
About Us
Career Opportunities